Valle, Arizona
Current Conditions -  °F | °C
As of 3:54 PM on Saturday 25 Oct 2014 (Local Time) from KGCN Reporting Station
Broken Clouds Broken Clouds  
Wind Chill: 70°   Ceiling: 8000
Heat Index: 70°   Visibility: 10mi
Dew Point: 40°   Wind: 12mph
Humidity: 33%   Direction: 220°SW
Pressure: 30.25"   Gusts: 24mph
Location:  35.65°N, 112.15°W
Report Text: KGCN 252254Z 22010G21KT 10SM SCT065 BKN080 21/04 A3025 RMK AO2 SLP189 T02110044
Loading
Personal Weather Stations






























Interactive Weather Map
Tropical Storm Tracking
New forecast layout! Learn more

10-Day Weather Forecast

Advertisements
Track Severe Weather on mobile